createdAt,value
2019-04-28T00:03:21.832Z,100214.92
2019-04-28T00:08:23.977Z,100221.09
2019-04-28T00:13:26.057Z,100230.69
2019-04-28T00:18:28.143Z,100234.33
2019-04-28T00:23:46.457Z,100230.72
2019-04-28T00:28:48.552Z,100232.55
2019-04-28T00:33:51.424Z,100231.84
2019-04-28T00:38:53.786Z,100235.95
2019-04-28T00:43:55.870Z,100235.68
2019-04-28T00:48:57.933Z,100242.19
2019-04-28T00:54:00.806Z,100238.00
2019-04-28T00:59:03.210Z,100248.21
2019-04-28T01:04:05.250Z,100254.31
2019-04-28T01:09:07.595Z,100251.58
2019-04-28T01:14:11.324Z,100250.73
2019-04-28T01:19:21.358Z,100247.77
2019-04-28T01:24:23.400Z,100244.41
2019-04-28T01:29:25.492Z,100246.02
2019-04-28T01:34:27.530Z,100248.85
2019-04-28T01:39:29.789Z,100248.72
2019-04-28T01:44:31.983Z,100256.36
2019-04-28T01:49:34.042Z,100252.34
2019-04-28T01:54:36.077Z,100252.98
2019-04-28T01:59:39.738Z,100262.98
2019-04-28T02:04:42.136Z,100266.98
2019-04-28T02:09:44.313Z,100268.33
2019-04-28T02:14:46.390Z,100274.14
2019-04-28T02:19:48.466Z,100271.17
2019-04-28T02:24:51.748Z,100276.17
2019-04-28T02:29:53.966Z,100281.72
2019-04-28T02:34:56.041Z,100275.20
2019-04-28T02:40:02.905Z,100284.56
2019-04-28T02:45:02.225Z,100282.44
2019-04-28T02:50:23.527Z,100285.88
2019-04-28T02:55:25.584Z,100282.52
2019-04-28T03:00:27.639Z,100284.34
2019-04-28T03:05:30.331Z,100288.78
2019-04-28T03:10:33.648Z,100280.96
2019-04-28T03:15:35.710Z,100287.56
2019-04-28T03:20:37.903Z,100282.70
2019-04-28T03:25:50.476Z,100283.55
2019-04-28T03:31:34.707Z,100279.56
2019-04-28T03:36:10.303Z,100275.28
2019-04-28T03:41:12.207Z,100286.20
2019-04-28T03:46:20.373Z,100295.26
2019-04-28T03:51:22.825Z,100303.55
2019-04-28T03:56:24.924Z,100315.34
2019-04-28T04:01:26.967Z,100319.93
2019-04-28T04:06:31.070Z,100333.31
2019-04-28T04:11:41.068Z,100333.31
2019-04-28T04:16:50.278Z,100340.06
2019-04-28T04:21:53.054Z,100337.14
2019-04-28T04:26:55.822Z,100335.07
2019-04-28T04:32:13.456Z,100321.28
2019-04-28T04:37:01.909Z,100312.63
2019-04-28T04:42:03.975Z,100326.11
2019-04-28T04:47:10.768Z,100335.30
2019-04-28T04:52:12.432Z,100340.34
2019-04-28T04:57:14.660Z,100350.97
2019-04-28T05:02:29.619Z,100359.31
2019-04-28T05:07:29.708Z,100370.84
2019-04-28T05:12:32.051Z,100378.83
2019-04-28T05:17:34.111Z,100389.23
2019-04-28T05:22:42.713Z,100393.69
2019-04-28T05:27:44.842Z,100398.25
2019-04-28T05:32:55.411Z,100402.20
2019-04-28T05:37:51.035Z,100409.48
2019-04-28T05:42:57.820Z,100410.45
2019-04-28T05:48:00.679Z,100423.23
2019-04-28T05:53:24.876Z,100428.52
2019-04-28T05:58:41.617Z,100430.09
2019-04-28T06:03:44.396Z,100434.50
2019-04-28T06:09:10.296Z,100436.11
2019-04-28T06:14:12.590Z,100436.16
2019-04-28T06:19:14.679Z,100428.31
2019-04-28T06:24:16.792Z,100432.97
2019-04-28T06:29:18.903Z,100426.56
2019-04-28T06:34:21.070Z,100426.73
2019-04-28T06:39:23.235Z,100436.98
2019-04-28T06:44:25.357Z,100446.13
2019-04-28T06:49:27.427Z,100449.27
2019-04-28T06:54:29.587Z,100459.45
2019-04-28T06:59:31.769Z,100472.78
2019-04-28T07:04:33.845Z,100472.81
2019-04-28T07:09:35.938Z,100482.59
2019-04-28T07:14:38.015Z,100484.81
2019-04-28T07:19:42.042Z,100487.58
2019-04-28T07:24:44.940Z,100494.11
2019-04-28T07:29:47.147Z,100493.59
2019-04-28T07:34:49.208Z,100502.47
2019-04-28T07:39:51.401Z,100510.47
2019-04-28T07:44:53.462Z,100520.19
2019-04-28T07:49:55.541Z,100526.59
2019-04-28T07:54:57.636Z,100528.98
2019-04-28T07:59:59.714Z,100542.19
2019-04-28T08:05:01.836Z,100554.25
2019-04-28T08:10:04.980Z,100556.16
2019-04-28T08:15:07.351Z,100566.84
2019-04-28T08:20:09.660Z,100573.59
2019-04-28T08:25:11.905Z,100576.99
2019-04-28T08:30:14.191Z,100582.33
2019-04-28T08:35:16.246Z,100588.70
2019-04-28T08:40:18.399Z,100591.97
2019-04-28T08:45:20.752Z,100594.59
2019-04-28T08:50:22.806Z,100601.59
2019-04-28T08:55:24.921Z,100593.31
2019-04-28T09:00:26.973Z,100589.92
2019-04-28T09:05:29.049Z,100596.55
2019-04-28T09:10:33.496Z,100595.36
2019-04-28T09:15:35.594Z,100611.72
2019-04-28T09:20:37.675Z,100609.13
2019-04-28T09:25:39.845Z,100609.69
2019-04-28T09:30:41.943Z,100608.88
2019-04-28T09:35:44.063Z,100605.31
2019-04-28T09:40:46.180Z,100615.72
2019-04-28T09:46:07.929Z,100601.64
2019-04-28T09:51:09.980Z,100598.98
2019-04-28T09:56:12.020Z,100591.34
2019-04-28T10:01:14.077Z,100589.76
2019-04-28T10:06:16.122Z,100591.89
2019-04-28T10:11:30.042Z,100596.28
2019-04-28T10:16:22.175Z,100595.66
2019-04-28T10:21:24.227Z,100596.39
2019-04-28T10:26:26.301Z,100577.38
2019-04-28T10:31:28.387Z,100580.59
2019-04-28T10:36:30.993Z,100586.53
2019-04-28T10:41:36.098Z,100586.59
2019-04-28T10:46:38.226Z,100584.03
2019-04-28T10:51:40.361Z,100583.13
2019-04-28T10:56:42.420Z,100588.61
2019-04-28T11:01:44.539Z,100590.90
2019-04-28T11:06:46.650Z,100592.97
2019-04-28T11:11:48.762Z,100598.44
2019-04-28T11:16:50.827Z,100592.31
2019-04-28T11:21:52.910Z,100596.33
2019-04-28T11:26:55.171Z,100595.54
2019-04-28T11:31:57.300Z,100595.34
2019-04-28T11:36:59.511Z,100593.69
2019-04-28T11:42:01.565Z,100601.92
2019-04-28T11:47:06.111Z,100603.13
2019-04-28T11:52:08.193Z,100602.52
2019-04-28T11:57:10.337Z,100591.47
2019-04-28T12:02:12.513Z,100585.52
2019-04-28T12:07:14.685Z,100583.36
2019-04-28T12:12:27.526Z,100577.93
2019-04-28T12:17:46.754Z,100580.33
2019-04-28T12:22:48.833Z,100587.94
2019-04-28T12:27:50.890Z,100600.00
2019-04-28T12:32:53.122Z,100597.48
2019-04-28T12:37:55.200Z,100588.71
2019-04-28T12:42:57.388Z,100593.13
2019-04-28T12:47:59.572Z,100592.77
2019-04-28T12:53:03.128Z,100592.69
2019-04-28T12:58:05.287Z,100582.31
2019-04-28T13:03:25.560Z,100586.91
2019-04-28T13:08:27.592Z,100581.02
2019-04-28T13:13:29.745Z,100580.34
2019-04-28T13:18:31.932Z,100586.70
2019-04-28T13:23:34.125Z,100586.84
2019-04-28T13:28:36.229Z,100585.64
2019-04-28T13:33:38.422Z,100581.55
2019-04-28T13:38:40.566Z,100587.38
2019-04-28T13:43:42.774Z,100581.32
2019-04-28T13:48:44.874Z,100581.35
2019-04-28T13:53:46.980Z,100580.05
2019-04-28T13:59:07.025Z,100571.76
2019-04-28T14:04:40.848Z,100569.77
2019-04-28T14:09:45.801Z,100556.98
2019-04-28T14:14:48.094Z,100556.34
2019-04-28T14:19:52.923Z,100556.45
2019-04-28T14:24:55.305Z,100562.03
2019-04-28T14:29:58.334Z,100560.75
2019-04-28T14:35:08.582Z,100564.53
2019-04-28T14:40:11.119Z,100560.23
2019-04-28T14:45:16.036Z,100565.44
2019-04-28T14:50:18.425Z,100568.16
2019-04-28T14:55:20.867Z,100570.36
2019-04-28T15:00:29.893Z,100574.16
2019-04-28T15:05:59.617Z,100579.99
2019-04-28T15:11:30.565Z,100580.14
2019-04-28T15:16:32.846Z,100581.46
2019-04-28T15:21:35.018Z,100575.00
2019-04-28T15:26:38.363Z,100579.32
2019-04-28T15:31:42.744Z,100580.16
2019-04-28T15:36:45.126Z,100577.19
2019-04-28T15:41:49.602Z,100575.23
2019-04-28T15:46:51.660Z,100579.37
2019-04-28T15:51:55.160Z,100574.41
2019-04-28T15:56:57.259Z,100577.75
2019-04-28T16:01:59.487Z,100584.23
2019-04-28T16:07:01.652Z,100587.53
2019-04-28T16:12:03.776Z,100582.94
2019-04-28T16:17:05.833Z,100581.12
2019-04-28T16:22:07.938Z,100580.78
2019-04-28T16:27:09.976Z,100580.80
2019-04-28T16:32:12.283Z,100584.62
2019-04-28T16:37:14.401Z,100589.90
2019-04-28T16:42:18.254Z,100592.38
2019-04-28T16:47:20.358Z,100596.33
2019-04-28T16:52:22.632Z,100599.14
2019-04-28T16:57:44.281Z,100603.95
2019-04-28T17:02:49.147Z,100608.10
2019-04-28T17:07:52.796Z,100607.92
2019-04-28T17:12:55.284Z,100623.94
2019-04-28T17:17:59.680Z,100627.25
2019-04-28T17:23:01.877Z,100629.05
2019-04-28T17:28:04.344Z,100635.08
2019-04-28T17:33:06.469Z,100635.73
2019-04-28T17:38:08.496Z,100638.33
2019-04-28T17:43:10.542Z,100635.62
2019-04-28T17:48:18.522Z,100643.72
2019-04-28T17:53:20.624Z,100644.17
2019-04-28T17:58:22.725Z,100652.17
2019-04-28T18:03:47.054Z,100652.34
2019-04-28T18:08:49.187Z,100658.61
2019-04-28T18:13:51.257Z,100667.00
2019-04-28T18:18:59.845Z,100665.28
2019-04-28T18:24:01.941Z,100674.14
2019-04-28T18:29:04.007Z,100677.52
2019-04-28T18:34:25.797Z,100692.01
2019-04-28T18:39:46.132Z,100697.38
2019-04-28T18:44:48.247Z,100701.25
2019-04-28T18:49:50.315Z,100710.98
2019-04-28T18:54:52.420Z,100715.89
2019-04-28T18:59:54.501Z,100724.69
2019-04-28T19:04:56.626Z,100730.57
2019-04-28T19:10:05.010Z,100736.58
2019-04-28T19:15:26.817Z,100745.36
2019-04-28T19:20:28.896Z,100749.78
2019-04-28T19:25:35.254Z,100752.31
2019-04-28T19:30:36.751Z,100757.84
2019-04-28T19:35:38.845Z,100759.63
2019-04-28T19:40:40.993Z,100764.55
2019-04-28T19:45:44.839Z,100761.30
2019-04-28T19:50:46.916Z,100764.09
2019-04-28T19:56:03.937Z,100761.59
2019-04-28T20:01:13.122Z,100767.29
2019-04-28T20:06:15.312Z,100772.52
2019-04-28T20:11:17.481Z,100776.08
2019-04-28T20:16:22.586Z,100778.37
2019-04-28T20:21:24.618Z,100779.69
2019-04-28T20:26:26.686Z,100777.86
2019-04-28T20:31:28.727Z,100778.37
2019-04-28T20:36:56.360Z,100778.66
2019-04-28T20:42:18.037Z,100781.42
2019-04-28T20:47:20.208Z,100782.19
2019-04-28T20:52:24.513Z,100781.16
2019-04-28T20:57:26.551Z,100784.38
2019-04-28T21:02:28.587Z,100786.67
2019-04-28T21:07:30.663Z,100799.97
2019-04-28T21:12:32.729Z,100792.48
2019-04-28T21:17:34.894Z,100790.77
2019-04-28T21:22:36.943Z,100796.17
2019-04-28T21:27:39.213Z,100787.24
2019-04-28T21:32:41.285Z,100787.19
2019-04-28T21:37:45.736Z,100785.82
2019-04-28T21:43:16.533Z,100786.92
2019-04-28T21:48:34.800Z,100792.00
2019-04-28T21:53:36.883Z,100798.09
2019-04-28T21:58:38.947Z,100795.59
2019-04-28T22:03:40.997Z,100798.84
2019-04-28T22:08:43.062Z,100801.42
2019-04-28T22:13:45.121Z,100797.81
2019-04-28T22:18:47.234Z,100805.36
2019-04-28T22:23:58.921Z,100809.25
2019-04-28T22:29:02.867Z,100810.69
2019-04-28T22:34:04.977Z,100813.89
2019-04-28T22:39:07.076Z,100812.36
2019-04-28T22:44:09.125Z,100824.41
2019-04-28T22:49:13.386Z,100818.17
2019-04-28T22:54:25.060Z,100819.91
2019-04-28T22:59:31.165Z,100823.56
2019-04-28T23:04:37.737Z,100826.13
2019-04-28T23:09:39.864Z,100830.64
2019-04-28T23:14:41.980Z,100827.17
2019-04-28T23:19:44.065Z,100833.39
2019-04-28T23:24:46.257Z,100835.83
2019-04-28T23:29:48.359Z,100832.48
2019-04-28T23:34:50.482Z,100833.18
2019-04-28T23:39:52.560Z,100833.65
2019-04-28T23:44:54.642Z,100827.65
2019-04-28T23:49:57.090Z,100824.67
2019-04-28T23:55:01.175Z,100824.87
